sensor_id;sensor_type;location;lat;lon;timestamp;P1;durP1;ratioP1;P2;durP2;ratioP2
295;SDS011;132;48.770;9.200;2023-03-14T00:00:16;1.85;;;1.35;;
295;SDS011;132;48.770;9.200;2023-03-14T00:02:44;1.50;;;1.40;;
295;SDS011;132;48.770;9.200;2023-03-14T00:08:02;2.70;;;1.30;;
295;SDS011;132;48.770;9.200;2023-03-14T00:10:29;1.70;;;1.55;;
295;SDS011;132;48.770;9.200;2023-03-14T00:12:59;1.80;;;1.67;;
295;SDS011;132;48.770;9.200;2023-03-14T00:15:26;2.78;;;1.60;;
295;SDS011;132;48.770;9.200;2023-03-14T00:17:54;1.60;;;1.50;;
295;SDS011;132;48.770;9.200;2023-03-14T00:20:23;1.70;;;1.60;;
295;SDS011;132;48.770;9.200;2023-03-14T00:22:51;2.10;;;1.55;;
295;SDS011;132;48.770;9.200;2023-03-14T00:25:19;1.90;;;1.55;;
295;SDS011;132;48.770;9.200;2023-03-14T00:27:45;2.38;;;1.80;;
295;SDS011;132;48.770;9.200;2023-03-14T00:30:12;1.58;;;1.50;;
295;SDS011;132;48.770;9.200;2023-03-14T00:32:40;4.65;;;1.70;;
295;SDS011;132;48.770;9.200;2023-03-14T00:35:09;2.28;;;1.65;;
295;SDS011;132;48.770;9.200;2023-03-14T00:37:35;1.83;;;1.55;;
295;SDS011;132;48.770;9.200;2023-03-14T00:40:01;1.85;;;1.50;;
295;SDS011;132;48.770;9.200;2023-03-14T00:42:31;1.50;;;1.40;;
295;SDS011;132;48.770;9.200;2023-03-14T00:44:58;2.72;;;1.48;;
295;SDS011;132;48.770;9.200;2023-03-14T00:47:24;1.65;;;1.50;;
295;SDS011;132;48.770;9.200;2023-03-14T00:49:51;1.77;;;1.50;;
295;SDS011;132;48.770;9.200;2023-03-14T00:52:18;2.17;;;1.50;;
295;SDS011;132;48.770;9.200;2023-03-14T00:54:45;2.30;;;1.50;;
295;SDS011;132;48.770;9.200;2023-03-14T00:57:11;2.38;;;1.50;;
295;SDS011;132;48.770;9.200;2023-03-14T00:59:37;1.70;;;1.55;;
295;SDS011;132;48.770;9.200;2023-03-14T01:02:04;2.97;;;1.60;;
295;SDS011;132;48.770;9.200;2023-03-14T01:04:30;2.00;;;1.40;;
295;SDS011;132;48.770;9.200;2023-03-14T01:06:57;1.50;;;1.40;;
295;SDS011;132;48.770;9.200;2023-03-14T01:09:23;2.78;;;1.40;;
295;SDS011;132;48.770;9.200;2023-03-14T01:11:49;2.30;;;1.38;;
295;SDS011;132;48.770;9.200;2023-03-14T01:14:16;2.95;;;1.40;;
295;SDS011;132;48.770;9.200;2023-03-14T01:16:43;1.98;;;1.60;;
295;SDS011;132;48.770;9.200;2023-03-14T01:19:09;1.83;;;1.50;;
295;SDS011;132;48.770;9.200;2023-03-14T01:21:36;1.45;;;1.38;;
295;SDS011;132;48.770;9.200;2023-03-14T01:24:03;1.55;;;1.30;;
295;SDS011;132;48.770;9.200;2023-03-14T01:26:32;1.42;;;1.25;;
295;SDS011;132;48.770;9.200;2023-03-14T01:29:00;1.83;;;1.30;;
295;SDS011;132;48.770;9.200;2023-03-14T01:31:28;1.67;;;1.30;;
295;SDS011;132;48.770;9.200;2023-03-14T01:33:54;2.63;;;1.40;;
295;SDS011;132;48.770;9.200;2023-03-14T01:36:21;1.30;;;1.30;;
295;SDS011;132;48.770;9.200;2023-03-14T01:38:48;1.37;;;1.30;;
295;SDS011;132;48.770;9.200;2023-03-14T01:41:17;1.73;;;1.50;;
295;SDS011;132;48.770;9.200;2023-03-14T01:43:47;1.30;;;1.20;;
295;SDS011;132;48.770;9.200;2023-03-14T01:46:21;1.50;;;1.30;;
295;SDS011;132;48.770;9.200;2023-03-14T01:52:22;2.50;;;1.30;;
295;SDS011;132;48.770;9.200;2023-03-14T01:55:15;1.42;;;1.30;;
295;SDS011;132;48.770;9.200;2023-03-14T01:57:53;1.40;;;1.30;;
295;SDS011;132;48.770;9.200;2023-03-14T02:00:29;2.95;;;1.42;;
295;SDS011;132;48.770;9.200;2023-03-14T02:02:58;2.50;;;1.40;;
295;SDS011;132;48.770;9.200;2023-03-14T02:05:39;1.30;;;1.30;;
295;SDS011;132;48.770;9.200;2023-03-14T02:08:13;1.40;;;1.30;;
295;SDS011;132;48.770;9.200;2023-03-14T02:10:49;2.57;;;1.50;;
295;SDS011;132;48.770;9.200;2023-03-14T02:13:21;1.90;;;1.60;;
295;SDS011;132;48.770;9.200;2023-03-14T02:15:51;1.95;;;1.52;;
295;SDS011;132;48.770;9.200;2023-03-14T02:18:53;1.92;;;1.30;;
295;SDS011;132;48.770;9.200;2023-03-14T02:24:46;1.80;;;1.50;;
295;SDS011;132;48.770;9.200;2023-03-14T02:27:50;2.75;;;1.50;;
295;SDS011;132;48.770;9.200;2023-03-14T02:30:18;2.45;;;1.50;;
295;SDS011;132;48.770;9.200;2023-03-14T02:32:49;1.60;;;1.50;;
295;SDS011;132;48.770;9.200;2023-03-14T02:35:24;2.25;;;1.50;;
295;SDS011;132;48.770;9.200;2023-03-14T02:37:55;1.52;;;1.40;;
295;SDS011;132;48.770;9.200;2023-03-14T02:40:39;2.00;;;1.30;;
295;SDS011;132;48.770;9.200;2023-03-14T02:43:06;1.30;;;1.30;;
295;SDS011;132;48.770;9.200;2023-03-14T02:45:39;2.63;;;1.25;;
295;SDS011;132;48.770;9.200;2023-03-14T02:48:13;1.40;;;1.20;;
295;SDS011;132;48.770;9.200;2023-03-14T02:50:46;2.95;;;1.27;;
295;SDS011;132;48.770;9.200;2023-03-14T02:53:18;3.05;;;1.40;;
295;SDS011;132;48.770;9.200;2023-03-14T02:55:50;2.38;;;1.33;;
295;SDS011;132;48.770;9.200;2023-03-14T02:58:19;2.90;;;1.40;;
295;SDS011;132;48.770;9.200;2023-03-14T03:00:49;2.70;;;1.40;;
295;SDS011;132;48.770;9.200;2023-03-14T03:03:17;1.50;;;1.40;;
295;SDS011;132;48.770;9.200;2023-03-14T03:05:47;2.28;;;1.42;;
295;SDS011;132;48.770;9.200;2023-03-14T03:08:16;2.88;;;1.67;;
295;SDS011;132;48.770;9.200;2023-03-14T03:10:44;1.80;;;1.40;;
295;SDS011;132;48.770;9.200;2023-03-14T03:13:10;5.22;;;1.40;;
295;SDS011;132;48.770;9.200;2023-03-14T03:18:06;1.65;;;1.50;;
295;SDS011;132;48.770;9.200;2023-03-14T03:20:33;1.90;;;1.40;;
295;SDS011;132;48.770;9.200;2023-03-14T03:23:00;1.80;;;1.45;;
295;SDS011;132;48.770;9.200;2023-03-14T03:25:26;3.60;;;1.48;;
295;SDS011;132;48.770;9.200;2023-03-14T03:27:53;6.13;;;1.60;;
295;SDS011;132;48.770;9.200;2023-03-14T03:30:21;2.70;;;1.63;;
295;SDS011;132;48.770;9.200;2023-03-14T03:32:48;2.47;;;1.50;;
295;SDS011;132;48.770;9.200;2023-03-14T03:35:15;1.88;;;1.40;;
295;SDS011;132;48.770;9.200;2023-03-14T03:37:45;1.80;;;1.60;;
295;SDS011;132;48.770;9.200;2023-03-14T03:40:11;2.60;;;1.52;;
295;SDS011;132;48.770;9.200;2023-03-14T03:42:38;6.03;;;1.65;;
295;SDS011;132;48.770;9.200;2023-03-14T03:45:08;2.55;;;1.52;;
295;SDS011;132;48.770;9.200;2023-03-14T03:47:46;2.30;;;1.50;;
295;SDS011;132;48.770;9.200;2023-03-14T03:52:43;2.08;;;1.60;;
295;SDS011;132;48.770;9.200;2023-03-14T03:57:37;5.95;;;1.55;;
295;SDS011;132;48.770;9.200;2023-03-14T04:00:11;2.67;;;1.52;;
295;SDS011;132;48.770;9.200;2023-03-14T04:02:41;5.90;;;1.75;;
295;SDS011;132;48.770;9.200;2023-03-14T04:05:10;2.97;;;1.98;;
295;SDS011;132;48.770;9.200;2023-03-14T04:07:42;4.75;;;1.55;;
295;SDS011;132;48.770;9.200;2023-03-14T04:10:09;3.83;;;1.70;;
295;SDS011;132;48.770;9.200;2023-03-14T04:12:39;9.73;;;2.13;;
295;SDS011;132;48.770;9.200;2023-03-14T04:15:16;3.25;;;1.60;;
295;SDS011;132;48.770;9.200;2023-03-14T04:17:49;3.95;;;1.70;;
295;SDS011;132;48.770;9.200;2023-03-14T04:22:54;2.20;;;1.50;;
295;SDS011;132;48.770;9.200;2023-03-14T04:28:20;4.00;;;1.90;;
295;SDS011;132;48.770;9.200;2023-03-14T04:36:34;1.90;;;1.60;;
295;SDS011;132;48.770;9.200;2023-03-14T04:39:06;5.05;;;1.88;;
295;SDS011;132;48.770;9.200;2023-03-14T04:41:37;3.55;;;1.60;;
295;SDS011;132;48.770;9.200;2023-03-14T04:49:56;6.18;;;1.98;;
295;SDS011;132;48.770;9.200;2023-03-14T04:59:30;2.53;;;1.67;;
295;SDS011;132;48.770;9.200;2023-03-14T05:20:03;7.60;;;1.90;;
295;SDS011;132;48.770;9.200;2023-03-14T05:28:48;7.75;;;2.03;;
295;SDS011;132;48.770;9.200;2023-03-14T05:31:26;6.22;;;1.50;;
295;SDS011;132;48.770;9.200;2023-03-14T05:37:26;4.07;;;1.88;;
295;SDS011;132;48.770;9.200;2023-03-14T05:43:24;3.50;;;1.60;;
295;SDS011;132;48.770;9.200;2023-03-14T05:46:01;4.65;;;1.60;;
295;SDS011;132;48.770;9.200;2023-03-14T05:48:46;5.20;;;1.60;;
295;SDS011;132;48.770;9.200;2023-03-14T05:51:27;5.97;;;2.35;;
295;SDS011;132;48.770;9.200;2023-03-14T05:53:56;2.67;;;1.55;;
295;SDS011;132;48.770;9.200;2023-03-14T05:59:31;5.93;;;2.00;;
295;SDS011;132;48.770;9.200;2023-03-14T06:02:09;2.40;;;1.70;;
295;SDS011;132;48.770;9.200;2023-03-14T06:04:49;2.60;;;1.60;;
295;SDS011;132;48.770;9.200;2023-03-14T06:07:15;3.22;;;1.75;;
295;SDS011;132;48.770;9.200;2023-03-14T06:09:43;5.55;;;1.65;;
295;SDS011;132;48.770;9.200;2023-03-14T06:12:12;4.20;;;1.70;;
295;SDS011;132;48.770;9.200;2023-03-14T06:14:45;5.13;;;2.03;;
295;SDS011;132;48.770;9.200;2023-03-14T06:17:12;3.25;;;1.60;;
295;SDS011;132;48.770;9.200;2023-03-14T06:19:48;7.95;;;1.85;;
295;SDS011;132;48.770;9.200;2023-03-14T06:25:11;4.65;;;1.83;;
295;SDS011;132;48.770;9.200;2023-03-14T06:27:38;4.25;;;1.70;;
295;SDS011;132;48.770;9.200;2023-03-14T06:30:05;4.80;;;1.60;;
295;SDS011;132;48.770;9.200;2023-03-14T06:32:34;2.95;;;1.80;;
295;SDS011;132;48.770;9.200;2023-03-14T06:35:06;2.15;;;1.50;;
295;SDS011;132;48.770;9.200;2023-03-14T06:37:36;4.93;;;1.80;;
295;SDS011;132;48.770;9.200;2023-03-14T06:40:04;3.33;;;1.50;;
295;SDS011;132;48.770;9.200;2023-03-14T06:42:51;3.53;;;1.58;;
295;SDS011;132;48.770;9.200;2023-03-14T06:45:20;3.83;;;1.73;;
295;SDS011;132;48.770;9.200;2023-03-14T06:47:47;7.78;;;1.77;;
295;SDS011;132;48.770;9.200;2023-03-14T06:50:18;2.45;;;1.60;;
295;SDS011;132;48.770;9.200;2023-03-14T06:52:47;2.45;;;1.50;;
295;SDS011;132;48.770;9.200;2023-03-14T06:55:21;6.55;;;1.70;;
295;SDS011;132;48.770;9.200;2023-03-14T07:00:34;3.90;;;1.70;;
295;SDS011;132;48.770;9.200;2023-03-14T07:03:01;2.67;;;1.48;;
295;SDS011;132;48.770;9.200;2023-03-14T07:08:14;2.00;;;1.50;;
295;SDS011;132;48.770;9.200;2023-03-14T07:10:40;4.43;;;1.50;;
295;SDS011;132;48.770;9.200;2023-03-14T07:13:08;2.50;;;1.35;;
295;SDS011;132;48.770;9.200;2023-03-14T07:15:44;3.58;;;1.60;;
295;SDS011;132;48.770;9.200;2023-03-14T07:18:11;7.43;;;1.60;;
295;SDS011;132;48.770;9.200;2023-03-14T07:20:38;2.73;;;1.60;;
295;SDS011;132;48.770;9.200;2023-03-14T07:23:06;1.85;;;1.30;;
295;SDS011;132;48.770;9.200;2023-03-14T07:28:37;2.58;;;1.33;;
295;SDS011;132;48.770;9.200;2023-03-14T07:31:08;4.05;;;1.30;;
295;SDS011;132;48.770;9.200;2023-03-14T07:33:37;3.40;;;1.63;;
295;SDS011;132;48.770;9.200;2023-03-14T07:36:05;4.30;;;1.40;;
295;SDS011;132;48.770;9.200;2023-03-14T07:38:41;2.00;;;1.20;;
295;SDS011;132;48.770;9.200;2023-03-14T07:41:25;2.57;;;1.40;;
295;SDS011;132;48.770;9.200;2023-03-14T07:44:14;2.60;;;1.30;;
295;SDS011;132;48.770;9.200;2023-03-14T07:46:41;3.83;;;1.57;;
295;SDS011;132;48.770;9.200;2023-03-14T07:49:09;2.57;;;1.50;;
295;SDS011;132;48.770;9.200;2023-03-14T07:51:36;1.73;;;1.43;;
295;SDS011;132;48.770;9.200;2023-03-14T07:56:53;1.50;;;1.30;;
295;SDS011;132;48.770;9.200;2023-03-14T07:59:21;1.93;;;1.90;;
295;SDS011;132;48.770;9.200;2023-03-14T08:01:48;3.60;;;1.40;;
295;SDS011;132;48.770;9.200;2023-03-14T08:04:14;2.30;;;1.37;;
295;SDS011;132;48.770;9.200;2023-03-14T08:06:41;3.07;;;1.50;;
295;SDS011;132;48.770;9.200;2023-03-14T08:09:07;2.60;;;1.30;;
295;SDS011;132;48.770;9.200;2023-03-14T08:11:40;2.50;;;1.30;;
295;SDS011;132;48.770;9.200;2023-03-14T08:14:06;2.73;;;1.50;;
295;SDS011;132;48.770;9.200;2023-03-14T08:16:32;2.33;;;1.30;;
295;SDS011;132;48.770;9.200;2023-03-14T08:18:59;2.60;;;1.37;;
295;SDS011;132;48.770;9.200;2023-03-14T08:21:25;3.30;;;1.40;;
295;SDS011;132;48.770;9.200;2023-03-14T08:23:52;2.23;;;1.30;;
295;SDS011;132;48.770;9.200;2023-03-14T08:26:20;3.07;;;1.50;;
295;SDS011;132;48.770;9.200;2023-03-14T08:28:46;2.80;;;1.60;;
295;SDS011;132;48.770;9.200;2023-03-14T08:31:13;2.63;;;1.47;;
295;SDS011;132;48.770;9.200;2023-03-14T08:33:40;6.67;;;1.90;;
295;SDS011;132;48.770;9.200;2023-03-14T08:36:06;3.30;;;1.67;;
295;SDS011;132;48.770;9.200;2023-03-14T08:38:33;2.40;;;1.33;;
295;SDS011;132;48.770;9.200;2023-03-14T08:41:00;4.90;;;1.80;;
295;SDS011;132;48.770;9.200;2023-03-14T08:43:30;2.47;;;1.53;;
295;SDS011;132;48.770;9.200;2023-03-14T08:46:00;1.73;;;1.30;;
295;SDS011;132;48.770;9.200;2023-03-14T08:48:27;2.50;;;1.37;;
295;SDS011;132;48.770;9.200;2023-03-14T08:51:04;4.73;;;1.40;;
295;SDS011;132;48.770;9.200;2023-03-14T08:53:32;3.90;;;1.30;;
295;SDS011;132;48.770;9.200;2023-03-14T08:55:58;3.67;;;1.50;;
295;SDS011;132;48.770;9.200;2023-03-14T08:58:25;1.30;;;1.20;;
295;SDS011;132;48.770;9.200;2023-03-14T09:00:51;5.50;;;1.53;;
295;SDS011;132;48.770;9.200;2023-03-14T09:03:17;3.23;;;1.53;;
295;SDS011;132;48.770;9.200;2023-03-14T09:05:44;2.13;;;1.20;;
295;SDS011;132;48.770;9.200;2023-03-14T09:08:11;1.30;;;1.20;;
295;SDS011;132;48.770;9.200;2023-03-14T09:10:37;2.17;;;1.40;;
295;SDS011;132;48.770;9.200;2023-03-14T09:13:04;1.50;;;1.30;;
295;SDS011;132;48.770;9.200;2023-03-14T09:15:30;1.50;;;1.20;;
295;SDS011;132;48.770;9.200;2023-03-14T09:17:57;2.10;;;1.47;;
295;SDS011;132;48.770;9.200;2023-03-14T09:20:24;4.10;;;1.70;;
295;SDS011;132;48.770;9.200;2023-03-14T09:22:50;1.67;;;1.20;;
295;SDS011;132;48.770;9.200;2023-03-14T09:25:17;1.43;;;1.30;;
295;SDS011;132;48.770;9.200;2023-03-14T09:27:43;2.97;;;1.40;;
295;SDS011;132;48.770;9.200;2023-03-14T09:30:10;3.60;;;1.40;;
295;SDS011;132;48.770;9.200;2023-03-14T09:32:37;2.67;;;1.43;;
295;SDS011;132;48.770;9.200;2023-03-14T09:35:04;1.63;;;1.40;;
295;SDS011;132;48.770;9.200;2023-03-14T09:37:30;1.97;;;1.40;;
295;SDS011;132;48.770;9.200;2023-03-14T09:39:57;3.33;;;1.50;;
295;SDS011;132;48.770;9.200;2023-03-14T09:42:24;1.30;;;1.27;;
295;SDS011;132;48.770;9.200;2023-03-14T09:47:20;1.70;;;1.30;;
295;SDS011;132;48.770;9.200;2023-03-14T09:49:48;3.80;;;1.53;;
295;SDS011;132;48.770;9.200;2023-03-14T09:52:17;3.13;;;1.40;;
295;SDS011;132;48.770;9.200;2023-03-14T09:54:51;2.63;;;1.37;;
295;SDS011;132;48.770;9.200;2023-03-14T09:57:21;1.40;;;1.30;;
295;SDS011;132;48.770;9.200;2023-03-14T09:59:51;2.17;;;1.20;;
295;SDS011;132;48.770;9.200;2023-03-14T10:02:22;1.30;;;1.20;;
295;SDS011;132;48.770;9.200;2023-03-14T10:04:51;1.40;;;1.20;;
295;SDS011;132;48.770;9.200;2023-03-14T10:07:30;1.40;;;1.37;;
295;SDS011;132;48.770;9.200;2023-03-14T10:09:58;2.40;;;1.30;;
295;SDS011;132;48.770;9.200;2023-03-14T10:12:35;1.93;;;1.27;;
295;SDS011;132;48.770;9.200;2023-03-14T10:15:09;2.07;;;1.20;;
295;SDS011;132;48.770;9.200;2023-03-14T10:17:40;3.07;;;1.40;;
295;SDS011;132;48.770;9.200;2023-03-14T10:20:25;1.40;;;1.13;;
295;SDS011;132;48.770;9.200;2023-03-14T10:22:59;1.93;;;1.13;;
295;SDS011;132;48.770;9.200;2023-03-14T10:25:36;1.73;;;1.40;;
295;SDS011;132;48.770;9.200;2023-03-14T10:28:04;3.47;;;1.27;;
295;SDS011;132;48.770;9.200;2023-03-14T10:30:38;1.37;;;1.33;;
295;SDS011;132;48.770;9.200;2023-03-14T10:35:54;1.57;;;1.30;;
295;SDS011;132;48.770;9.200;2023-03-14T10:38:24;1.60;;;1.30;;
295;SDS011;132;48.770;9.200;2023-03-14T10:40:53;1.77;;;1.30;;
295;SDS011;132;48.770;9.200;2023-03-14T10:43:56;1.30;;;1.30;;
295;SDS011;132;48.770;9.200;2023-03-14T10:46:17;1.40;;;1.30;;
295;SDS011;132;48.770;9.200;2023-03-14T10:49:16;1.60;;;1.50;;
295;SDS011;132;48.770;9.200;2023-03-14T10:51:54;1.50;;;1.40;;
295;SDS011;132;48.770;9.200;2023-03-14T10:54:21;4.70;;;1.40;;
295;SDS011;132;48.770;9.200;2023-03-14T10:56:58;1.37;;;1.30;;
295;SDS011;132;48.770;9.200;2023-03-14T10:59:33;3.30;;;1.40;;
295;SDS011;132;48.770;9.200;2023-03-14T11:02:20;1.70;;;1.33;;
295;SDS011;132;48.770;9.200;2023-03-14T11:05:06;1.30;;;1.30;;
295;SDS011;132;48.770;9.200;2023-03-14T11:07:57;3.20;;;1.40;;
295;SDS011;132;48.770;9.200;2023-03-14T11:16:02;2.63;;;1.30;;
295;SDS011;132;48.770;9.200;2023-03-14T11:21:41;1.30;;;1.27;;
295;SDS011;132;48.770;9.200;2023-03-14T11:27:17;1.60;;;1.10;;
295;SDS011;132;48.770;9.200;2023-03-14T11:29:55;1.70;;;1.10;;
295;SDS011;132;48.770;9.200;2023-03-14T11:35:39;1.90;;;1.30;;
295;SDS011;132;48.770;9.200;2023-03-14T11:38:58;1.30;;;1.30;;
295;SDS011;132;48.770;9.200;2023-03-14T11:41:10;1.60;;;1.30;;
295;SDS011;132;48.770;9.200;2023-03-14T11:43:41;2.13;;;1.43;;
295;SDS011;132;48.770;9.200;2023-03-14T11:46:16;1.30;;;1.20;;
295;SDS011;132;48.770;9.200;2023-03-14T11:51:49;1.67;;;1.37;;
295;SDS011;132;48.770;9.200;2023-03-14T11:54:27;2.10;;;1.40;;
295;SDS011;132;48.770;9.200;2023-03-14T11:56:58;1.30;;;1.20;;
295;SDS011;132;48.770;9.200;2023-03-14T12:04:40;1.47;;;1.43;;
295;SDS011;132;48.770;9.200;2023-03-14T12:07:14;1.70;;;1.60;;
295;SDS011;132;48.770;9.200;2023-03-14T12:09:47;1.40;;;1.33;;
295;SDS011;132;48.770;9.200;2023-03-14T12:12:19;1.43;;;1.30;;
295;SDS011;132;48.770;9.200;2023-03-14T12:14:58;2.40;;;1.30;;
295;SDS011;132;48.770;9.200;2023-03-14T12:17:39;1.30;;;1.17;;
295;SDS011;132;48.770;9.200;2023-03-14T12:20:17;1.30;;;1.20;;
295;SDS011;132;48.770;9.200;2023-03-14T12:22:46;1.90;;;1.50;;
295;SDS011;132;48.770;9.200;2023-03-14T12:25:17;1.70;;;1.60;;
295;SDS011;132;48.770;9.200;2023-03-14T12:27:48;2.17;;;1.50;;
295;SDS011;132;48.770;9.200;2023-03-14T12:35:52;1.50;;;1.50;;
295;SDS011;132;48.770;9.200;2023-03-14T12:38:46;1.50;;;1.47;;
295;SDS011;132;48.770;9.200;2023-03-14T12:41:28;2.17;;;1.30;;
295;SDS011;132;48.770;9.200;2023-03-14T12:46:57;2.77;;;1.50;;
295;SDS011;132;48.770;9.200;2023-03-14T12:49:43;2.23;;;1.40;;
295;SDS011;132;48.770;9.200;2023-03-14T12:52:18;2.70;;;1.50;;
295;SDS011;132;48.770;9.200;2023-03-14T13:02:44;1.40;;;1.40;;
295;SDS011;132;48.770;9.200;2023-03-14T13:05:12;2.33;;;1.50;;
295;SDS011;132;48.770;9.200;2023-03-14T13:13:01;2.20;;;1.63;;
295;SDS011;132;48.770;9.200;2023-03-14T13:15:44;1.50;;;1.40;;
295;SDS011;132;48.770;9.200;2023-03-14T13:18:16;1.97;;;1.80;;
295;SDS011;132;48.770;9.200;2023-03-14T13:20:53;6.10;;;2.13;;
295;SDS011;132;48.770;9.200;2023-03-14T13:23:24;2.90;;;2.17;;
295;SDS011;132;48.770;9.200;2023-03-14T13:25:52;2.73;;;1.50;;
295;SDS011;132;48.770;9.200;2023-03-14T13:28:19;2.17;;;2.00;;
295;SDS011;132;48.770;9.200;2023-03-14T13:30:47;3.57;;;1.73;;
295;SDS011;132;48.770;9.200;2023-03-14T13:33:21;1.70;;;1.70;;
295;SDS011;132;48.770;9.200;2023-03-14T13:35:59;4.77;;;2.00;;
295;SDS011;132;48.770;9.200;2023-03-14T13:38:31;6.20;;;1.73;;
295;SDS011;132;48.770;9.200;2023-03-14T13:41:03;4.97;;;1.60;;
295;SDS011;132;48.770;9.200;2023-03-14T13:43:33;3.50;;;2.00;;
295;SDS011;132;48.770;9.200;2023-03-14T13:48:44;3.57;;;1.93;;
295;SDS011;132;48.770;9.200;2023-03-14T13:51:16;6.13;;;1.93;;
295;SDS011;132;48.770;9.200;2023-03-14T13:53:49;2.07;;;1.60;;
295;SDS011;132;48.770;9.200;2023-03-14T13:56:20;3.40;;;1.90;;
295;SDS011;132;48.770;9.200;2023-03-14T13:58:51;3.00;;;1.80;;
295;SDS011;132;48.770;9.200;2023-03-14T14:04:13;4.90;;;1.73;;
295;SDS011;132;48.770;9.200;2023-03-14T14:07:16;4.30;;;1.70;;
295;SDS011;132;48.770;9.200;2023-03-14T14:09:41;2.60;;;1.80;;
295;SDS011;132;48.770;9.200;2023-03-14T14:12:15;2.00;;;1.67;;
295;SDS011;132;48.770;9.200;2023-03-14T14:14:52;7.33;;;1.83;;
295;SDS011;132;48.770;9.200;2023-03-14T14:17:28;3.20;;;1.63;;
295;SDS011;132;48.770;9.200;2023-03-14T14:20:14;2.73;;;1.50;;
295;SDS011;132;48.770;9.200;2023-03-14T14:22:49;4.20;;;1.80;;
295;SDS011;132;48.770;9.200;2023-03-14T14:25:16;3.70;;;1.70;;
295;SDS011;132;48.770;9.200;2023-03-14T14:27:43;4.13;;;1.60;;
295;SDS011;132;48.770;9.200;2023-03-14T14:32:43;4.13;;;1.80;;
295;SDS011;132;48.770;9.200;2023-03-14T14:35:20;3.13;;;1.70;;
295;SDS011;132;48.770;9.200;2023-03-14T14:37:52;2.87;;;1.50;;
295;SDS011;132;48.770;9.200;2023-03-14T14:40:19;3.10;;;1.80;;
295;SDS011;132;48.770;9.200;2023-03-14T14:42:48;3.20;;;1.90;;
295;SDS011;132;48.770;9.200;2023-03-14T14:45:22;2.63;;;1.57;;
295;SDS011;132;48.770;9.200;2023-03-14T14:50:39;3.10;;;1.50;;
295;SDS011;132;48.770;9.200;2023-03-14T14:53:29;12.80;;;1.73;;
295;SDS011;132;48.770;9.200;2023-03-14T14:55:58;5.27;;;1.60;;
295;SDS011;132;48.770;9.200;2023-03-14T14:58:32;3.13;;;1.67;;
295;SDS011;132;48.770;9.200;2023-03-14T15:01:16;2.60;;;1.57;;
295;SDS011;132;48.770;9.200;2023-03-14T15:03:45;3.90;;;1.63;;
295;SDS011;132;48.770;9.200;2023-03-14T15:06:14;2.33;;;1.70;;
295;SDS011;132;48.770;9.200;2023-03-14T15:08:42;3.57;;;1.80;;
295;SDS011;132;48.770;9.200;2023-03-14T15:11:14;3.73;;;2.00;;
295;SDS011;132;48.770;9.200;2023-03-14T15:13:49;4.57;;;2.00;;
295;SDS011;132;48.770;9.200;2023-03-14T15:16:16;4.50;;;2.00;;
295;SDS011;132;48.770;9.200;2023-03-14T15:18:57;4.23;;;1.80;;
295;SDS011;132;48.770;9.200;2023-03-14T15:21:25;8.30;;;1.90;;
295;SDS011;132;48.770;9.200;2023-03-14T15:23:53;5.13;;;2.23;;
295;SDS011;132;48.770;9.200;2023-03-14T15:26:21;4.50;;;1.90;;
295;SDS011;132;48.770;9.200;2023-03-14T15:28:50;2.30;;;1.50;;
295;SDS011;132;48.770;9.200;2023-03-14T15:31:16;4.37;;;1.90;;
295;SDS011;132;48.770;9.200;2023-03-14T15:33:44;5.80;;;1.90;;
295;SDS011;132;48.770;9.200;2023-03-14T15:36:30;4.27;;;1.40;;
295;SDS011;132;48.770;9.200;2023-03-14T15:38:59;3.60;;;1.60;;
295;SDS011;132;48.770;9.200;2023-03-14T15:41:27;5.17;;;1.90;;
295;SDS011;132;48.770;9.200;2023-03-14T15:43:54;5.23;;;2.00;;
295;SDS011;132;48.770;9.200;2023-03-14T15:46:20;4.43;;;1.90;;
295;SDS011;132;48.770;9.200;2023-03-14T15:48:48;2.90;;;1.60;;
295;SDS011;132;48.770;9.200;2023-03-14T15:51:15;2.80;;;1.60;;
295;SDS011;132;48.770;9.200;2023-03-14T15:53:42;3.03;;;1.70;;
295;SDS011;132;48.770;9.200;2023-03-14T15:56:16;5.20;;;1.80;;
295;SDS011;132;48.770;9.200;2023-03-14T15:58:44;3.10;;;1.90;;
295;SDS011;132;48.770;9.200;2023-03-14T16:01:14;5.90;;;2.30;;
295;SDS011;132;48.770;9.200;2023-03-14T16:03:42;4.33;;;2.00;;
295;SDS011;132;48.770;9.200;2023-03-14T16:06:10;4.60;;;1.90;;
295;SDS011;132;48.770;9.200;2023-03-14T16:08:36;5.23;;;1.70;;
295;SDS011;132;48.770;9.200;2023-03-14T16:11:03;3.90;;;1.80;;
295;SDS011;132;48.770;9.200;2023-03-14T16:13:30;4.87;;;1.97;;
295;SDS011;132;48.770;9.200;2023-03-14T16:16:01;2.95;;;1.70;;
295;SDS011;132;48.770;9.200;2023-03-14T16:18:30;5.17;;;2.00;;
295;SDS011;132;48.770;9.200;2023-03-14T16:20:59;2.37;;;1.60;;
295;SDS011;132;48.770;9.200;2023-03-14T16:23:27;6.30;;;2.00;;
295;SDS011;132;48.770;9.200;2023-03-14T16:25:55;3.20;;;1.80;;
295;SDS011;132;48.770;9.200;2023-03-14T16:28:22;4.57;;;1.80;;
295;SDS011;132;48.770;9.200;2023-03-14T16:30:49;5.40;;;1.85;;
295;SDS011;132;48.770;9.200;2023-03-14T16:33:15;3.72;;;1.70;;
295;SDS011;132;48.770;9.200;2023-03-14T16:35:55;4.30;;;1.70;;
295;SDS011;132;48.770;9.200;2023-03-14T16:38:23;3.97;;;1.70;;
295;SDS011;132;48.770;9.200;2023-03-14T16:41:01;3.17;;;1.70;;
295;SDS011;132;48.770;9.200;2023-03-14T16:43:32;3.10;;;1.58;;
295;SDS011;132;48.770;9.200;2023-03-14T16:46:02;2.90;;;2.08;;
295;SDS011;132;48.770;9.200;2023-03-14T16:48:30;3.42;;;1.77;;
295;SDS011;132;48.770;9.200;2023-03-14T16:50:56;4.95;;;1.80;;
295;SDS011;132;48.770;9.200;2023-03-14T16:53:23;3.97;;;2.00;;
295;SDS011;132;48.770;9.200;2023-03-14T16:55:50;2.45;;;1.50;;
295;SDS011;132;48.770;9.200;2023-03-14T16:58:16;1.92;;;1.55;;
295;SDS011;132;48.770;9.200;2023-03-14T17:00:43;6.18;;;1.90;;
295;SDS011;132;48.770;9.200;2023-03-14T17:03:11;2.55;;;1.70;;
295;SDS011;132;48.770;9.200;2023-03-14T17:05:43;4.13;;;1.90;;
295;SDS011;132;48.770;9.200;2023-03-14T17:08:15;3.90;;;1.90;;
295;SDS011;132;48.770;9.200;2023-03-14T17:10:42;4.78;;;1.67;;
295;SDS011;132;48.770;9.200;2023-03-14T17:13:09;5.05;;;1.95;;
295;SDS011;132;48.770;9.200;2023-03-14T17:15:36;5.32;;;1.95;;
295;SDS011;132;48.770;9.200;2023-03-14T17:18:03;3.63;;;2.00;;
295;SDS011;132;48.770;9.200;2023-03-14T17:20:30;2.22;;;1.83;;
295;SDS011;132;48.770;9.200;2023-03-14T17:22:57;6.18;;;1.77;;
295;SDS011;132;48.770;9.200;2023-03-14T17:25:23;3.08;;;1.70;;
295;SDS011;132;48.770;9.200;2023-03-14T17:27:49;5.47;;;2.15;;
295;SDS011;132;48.770;9.200;2023-03-14T17:30:16;9.43;;;2.30;;
295;SDS011;132;48.770;9.200;2023-03-14T17:32:42;2.67;;;1.63;;
295;SDS011;132;48.770;9.200;2023-03-14T17:35:08;6.72;;;2.22;;
295;SDS011;132;48.770;9.200;2023-03-14T17:37:35;6.10;;;2.28;;
295;SDS011;132;48.770;9.200;2023-03-14T17:40:01;6.10;;;2.45;;
295;SDS011;132;48.770;9.200;2023-03-14T17:42:29;4.65;;;1.90;;
295;SDS011;132;48.770;9.200;2023-03-14T17:44:56;3.42;;;2.00;;
295;SDS011;132;48.770;9.200;2023-03-14T17:47:23;8.63;;;2.40;;
295;SDS011;132;48.770;9.200;2023-03-14T17:49:49;5.97;;;2.20;;
295;SDS011;132;48.770;9.200;2023-03-14T17:52:16;6.55;;;2.47;;
295;SDS011;132;48.770;9.200;2023-03-14T17:54:42;6.22;;;2.75;;
295;SDS011;132;48.770;9.200;2023-03-14T17:57:09;5.65;;;2.22;;
295;SDS011;132;48.770;9.200;2023-03-14T17:59:35;4.30;;;2.15;;
295;SDS011;132;48.770;9.200;2023-03-14T18:02:02;11.82;;;2.40;;
295;SDS011;132;48.770;9.200;2023-03-14T18:04:28;5.25;;;2.05;;
295;SDS011;132;48.770;9.200;2023-03-14T18:06:55;4.18;;;2.13;;
295;SDS011;132;48.770;9.200;2023-03-14T18:09:21;7.85;;;2.55;;
295;SDS011;132;48.770;9.200;2023-03-14T18:11:48;10.75;;;2.58;;
295;SDS011;132;48.770;9.200;2023-03-14T18:14:14;4.95;;;2.20;;
295;SDS011;132;48.770;9.200;2023-03-14T18:16:41;6.90;;;2.70;;
295;SDS011;132;48.770;9.200;2023-03-14T18:19:14;7.82;;;2.95;;
295;SDS011;132;48.770;9.200;2023-03-14T18:21:40;4.43;;;2.22;;
295;SDS011;132;48.770;9.200;2023-03-14T18:24:08;4.68;;;2.83;;
295;SDS011;132;48.770;9.200;2023-03-14T18:26:35;5.15;;;2.95;;
295;SDS011;132;48.770;9.200;2023-03-14T18:29:02;5.50;;;2.63;;
295;SDS011;132;48.770;9.200;2023-03-14T18:31:28;3.40;;;2.10;;
295;SDS011;132;48.770;9.200;2023-03-14T18:33:56;5.68;;;2.20;;
295;SDS011;132;48.770;9.200;2023-03-14T18:36:22;7.85;;;1.95;;